• Join FlightAware (Why Join?)
  • Login
  • US Flag 
09:52AM EDT


 

Airport Tracker/Info


-or-


 

Live Flight TrackerFlight Track Log ✈ RPA3242 ✈ 11-May-2013 ✈ KPHL - KALB

Flight Track Log - Related Links

Times and Time Zones

All times are in EDT time to prevent confusion due to time zone crossing. See the RPA3242 flight status page for this flight to view local times or setup timezone preferences in your user account.

Time Position Orientation Groundspeed Altitude Reporting Facility
EDT Latitude Longitude Course Direction KTS MPH feet Rate Location/Type
09:32PM 39.8667 -75.2667 37° Northeast 125 144 700  Level Philadelphia TRACON
09:33PM 39.8333 -75.3167 229° Southwest 194 223 2,400 2,400 Climbing Philadelphia TRACON
09:34PM 39.7667 -75.3500 201° Southwest 230 265 5,600 2,700 Climbing Philadelphia TRACON
09:35PM 39.8096 -74.8310 105° East  Level FlightAware Approximate
09:35PM 39.7500 -75.2667 105° East 297 342 7,900  Level Philadelphia TRACON
09:36PM 39.7860 -74.6973 37° Northeast  Level FlightAware Approximate
09:36PM 39.7500 -75.1500 90° East 320 368 10,500  Level Philadelphia TRACON
09:37PM 39.8713 -74.6121 37° Northeast  Level FlightAware Approximate
09:38PM 39.9600 -74.5400 37° Northeast  Level FlightAware Approximate
09:38PM 39.7764 -74.9036 82° East 354 407 12,000  Level New York Center
09:39PM 39.7889 -74.7828 82° East 354 407 13,700 1,800 Climbing New York Center
09:40PM 39.8408 -74.6694 59° Northeast 355 409 15,600 2,100 Climbing New York Center
09:41PM 39.9267 -74.5875 36° Northeast 362 417 17,900 1,980 Climbing New York Center
09:42PM 40.0256 -74.4953 36° Northeast 375 432 19,700 1,680 Climbing New York Center
09:43PM 40.1056 -74.4075 40° Northeast 393 452 21,300 1,380 Climbing New York Center
09:44PM 40.2000 -74.3144 37° Northeast 406 467 22,500 1,200 Climbing New York Center
09:45PM 40.2989 -74.2161 37° Northeast 419 482 23,700 720 Climbing New York Center
09:46PM 40.4017 -74.1150 37° Northeast 441 507 24,000 120 Climbing New York Center
09:47PM 40.5044 -74.0244 34° Northeast 454 522 24,000 -60 Level New York Center
09:48PM 40.6167 -73.9589 24° Northeast 443 510 23,900  Descending New York Center
09:50PM 40.8228 -73.8225 27° Northeast 462 532 24,000  Climbing Boston Center
09:51PM 40.9156 -73.7117 42° Northeast 454 522 23,900 -540 Descending Boston Center
09:52PM 41.0228 -73.6286 30° Northeast 449 517 23,000 -1,260 Descending Boston Center
09:53PM 41.1378 -73.5894 14° North 425 489 21,400 -1,500 Descending Boston Center
09:54PM 41.2461 -73.6022 355° North 388 447 20,000 -1,200 Descending Boston Center
09:55PM 41.3503 -73.6153 355° North 380 437 19,000 -540 Descending Boston Center
09:56PM 41.4542 -73.6283 355° North 374 430 19,000  Level Boston Center
09:57PM 41.5583 -73.6414 355° North 374 430 19,000 -300 Level Boston Center
09:58PM 41.6644 -73.6544 355° North 369 425 18,500 -960 Descending Boston Center
09:59PM 41.7558 -73.6700 353° North 369 425 17,100 -1,440 Descending Boston Center
10:00PM 41.8308 -73.6800 354° North 370 426 16,200 -1,320 Descending Boston Center
10:00PM 41.8664 -73.6833 356° North 369 425 15,800 -1,080 Descending Boston Center
10:01PM 41.9392 -73.6933 354° North 365 420 15,000 -1,140 Descending Boston Center
10:01PM 41.9558 -73.6964 352° North 369 425 14,700 -1,200 Descending Boston Center
10:02PM 42.0369 -73.7064 355° North 357 411 13,800 -1,140 Descending Boston Center
10:02PM 42.0556 -73.7094 353° North 369 425 13,600 -1,320 Descending Boston Center
10:03PM 42.1347 -73.7194 355° North 351 404 12,500 -1,500 Descending Boston Center
10:03PM 42.1617 -73.7228 355° North 358 412 12,100 -1,200 Descending Boston Center
10:04PM 42.2306 -73.7356 352° North 344 396 11,300 -1,200 Descending Boston Center
10:04PM 42.2450 -73.7331 North 341 392 10,900 -1,920 Descending Boston Center
10:05PM 42.3219 -73.7486 351° North 309 356 9,400 -1,920 Descending Boston Center
10:05PM 42.3386 -73.7489 359° North 312 359 9,000 -1,800 Descending Boston Center
10:06PM 42.4136 -73.7675 350° North 300 345 7,200 -1,980 Descending Boston Center
10:07PM 42.4819 -73.7858 349° North 284 327 5,500 -2,160 Descending Boston Center
10:08PM 42.5486 -73.7983 352° North 226 260 3,400 -1,380 Descending Boston Center
10:09PM 42.6069 -73.8025 357° North 211 243 2,800 -600 Descending Boston Center